KSDM/SDM METAR and TAF weather

Enter ICAO airport designator
Station Type Date Time Source
KSDM METAR 2018/12/13 08:53 UTC NOAA

KSDM 130853Z AUTO 05005KT 10SM CLR 11/09 A3017 RMK AO2 SLP213 T01060089 55003


Station Type Date Time Source
KSDM Decoded METAR 2018/12/13 08:53 UTC NOAA

San Diego, Brown Field Municipal Airport, CA, United States (KSDM) 32-34-31N 116-59-35W 159M
Dec 13, 2018 - 03:53 AM EST / 2018.12.13 0853 UTC
Wind: from the NE (050 degrees) at 6 MPH (5 KT):0
Visibility: 10 mile(s):0
Sky conditions: clear
Temperature: 51.1 F (10.6 C)
Dew Point: 48.0 F (8.9 C)
Relative Humidity: 89%
Pressure (altimeter): 30.17 in. Hg (1021 hPa)
Pressure tendency: 0.01 inches (0.3 hPa) lower than three hours ago
ob: KSDM 130853Z AUTO 05005KT 10SM CLR 11/09 A3017 RMK AO2 SLP213 T01060089 55003
cycle: 9

Station Type Date Time Source
KSDM TAF UTC NOAA

Error!


Example: see airport list